createdAt,value
2023-01-01T00:01:29.695Z,94546.00
2023-01-01T00:03:59.546Z,94563.00
2023-01-01T00:06:26.812Z,94554.00
2023-01-01T00:09:17.124Z,94555.00
2023-01-01T00:11:50.817Z,94566.00
2023-01-01T00:14:19.909Z,94566.00
2023-01-01T00:16:46.864Z,94574.00
2023-01-01T00:19:15.995Z,94580.00
2023-01-01T00:21:46.473Z,94583.00
2023-01-01T00:24:13.411Z,94576.00
2023-01-01T00:26:40.484Z,94577.00
2023-01-01T00:29:09.717Z,94578.00
2023-01-01T00:31:36.624Z,94572.00
2023-01-01T00:34:03.638Z,94567.00
2023-01-01T00:36:33.046Z,94565.00
2023-01-01T00:39:04.178Z,94568.00
2023-01-01T00:41:33.353Z,94572.00
2023-01-01T00:44:02.480Z,94562.00
2023-01-01T00:46:29.427Z,94563.00
2023-01-01T00:48:56.416Z,94562.00
2023-01-01T00:51:25.848Z,94559.00
2023-01-01T00:53:54.992Z,94558.00
2023-01-01T00:56:24.108Z,94558.00
2023-01-01T00:59:00.704Z,94558.00
2023-01-01T01:01:28.993Z,94548.00
2023-01-01T01:03:58.356Z,94557.00
2023-01-01T01:06:27.751Z,94563.00
2023-01-01T01:08:57.297Z,94566.00
2023-01-01T01:11:29.484Z,94561.00
2023-01-01T01:13:59.814Z,94560.00
2023-01-01T01:16:33.071Z,94578.00
2023-01-01T01:19:05.607Z,94578.00
2023-01-01T01:21:35.248Z,94570.00
2023-01-01T01:24:06.371Z,94575.00
2023-01-01T01:26:35.233Z,94579.00
2023-01-01T01:29:04.469Z,94580.00
2023-01-01T01:31:36.011Z,94580.00
2023-01-01T01:34:02.839Z,94575.00
2023-01-01T01:36:34.526Z,94584.00
2023-01-01T01:39:01.369Z,94578.00
2023-01-01T01:41:30.950Z,94587.00
2023-01-01T01:44:01.526Z,94587.00
2023-01-01T01:46:43.322Z,94590.00
2023-01-01T01:49:30.400Z,94589.00
2023-01-01T01:52:01.116Z,94583.00
2023-01-01T01:54:30.955Z,94588.00
2023-01-01T01:57:04.971Z,94594.00
2023-01-01T01:59:42.418Z,94593.00
2023-01-01T02:02:37.518Z,94592.00
2023-01-01T02:05:06.355Z,94581.00
2023-01-01T02:07:34.780Z,94584.00
2023-01-01T02:10:06.131Z,94585.00
2023-01-01T02:12:35.158Z,94583.00
2023-01-01T02:15:02.186Z,94584.00
2023-01-01T02:17:47.132Z,94577.00
2023-01-01T02:20:35.251Z,94584.00
2023-01-01T02:23:30.852Z,94572.00
2023-01-01T02:26:16.799Z,94594.00
2023-01-01T02:29:11.891Z,94566.00
2023-01-01T02:31:53.278Z,94592.00
2023-01-01T02:34:27.416Z,94592.00
2023-01-01T02:37:00.671Z,94594.00
2023-01-01T02:39:32.674Z,94598.00
2023-01-01T02:42:03.328Z,94588.00
2023-01-01T02:44:32.652Z,94584.00
2023-01-01T02:47:10.756Z,94587.00
2023-01-01T02:50:01.907Z,94589.00
2023-01-01T02:52:40.319Z,94590.00
2023-01-01T02:55:14.850Z,94598.00
2023-01-01T02:57:51.748Z,94584.00
2023-01-01T03:00:27.474Z,94595.00
2023-01-01T03:03:13.827Z,94592.00
2023-01-01T03:06:15.184Z,94590.00
2023-01-01T03:09:32.926Z,94602.00
2023-01-01T03:12:39.809Z,94599.00
2023-01-01T03:15:42.837Z,94601.00
2023-01-01T03:18:27.331Z,94591.00
2023-01-01T03:20:56.839Z,94588.00
2023-01-01T03:23:31.919Z,94599.00
2023-01-01T03:26:07.277Z,94604.00
2023-01-01T03:28:47.973Z,94602.00
2023-01-01T03:31:21.455Z,94597.00
2023-01-01T03:34:13.653Z,94597.00
2023-01-01T03:36:52.081Z,94602.00
2023-01-01T03:39:25.054Z,94587.00
2023-01-01T03:42:29.851Z,94588.00
2023-01-01T03:45:18.702Z,94598.00
2023-01-01T03:47:48.647Z,94598.00
2023-01-01T03:50:16.573Z,94588.00
2023-01-01T03:53:05.792Z,94588.00
2023-01-01T03:55:43.584Z,94572.00
2023-01-01T03:58:26.550Z,94566.00
2023-01-01T04:01:09.425Z,94562.00
2023-01-01T04:03:39.917Z,94566.00
2023-01-01T04:06:13.741Z,94564.00
2023-01-01T04:08:45.705Z,94571.00
2023-01-01T04:11:43.713Z,94580.00
2023-01-01T04:14:13.642Z,94580.00
2023-01-01T04:16:40.721Z,94577.00
2023-01-01T04:19:07.697Z,94575.00
2023-01-01T04:21:34.877Z,94592.00
2023-01-01T04:24:04.134Z,94591.00
2023-01-01T04:26:33.063Z,94589.00
2023-01-01T04:28:59.944Z,94588.00
2023-01-01T04:31:28.887Z,94588.00
2023-01-01T04:34:00.724Z,94595.00
2023-01-01T04:36:30.240Z,94598.00
2023-01-01T04:39:02.136Z,94600.00
2023-01-01T04:41:29.032Z,94609.00
2023-01-01T04:43:58.288Z,94607.00
2023-01-01T04:46:25.496Z,94593.00
2023-01-01T04:48:52.823Z,94598.00
2023-01-01T04:51:21.967Z,94600.00
2023-01-01T04:53:53.475Z,94601.00
2023-01-01T04:56:29.484Z,94609.00
2023-01-01T04:59:00.903Z,94608.00
2023-01-01T05:01:32.596Z,94604.00
2023-01-01T05:04:00.489Z,94610.00
2023-01-01T05:06:30.210Z,94609.00
2023-01-01T05:08:58.359Z,94609.00
2023-01-01T05:11:28.826Z,94620.00
2023-01-01T05:13:59.853Z,94627.00
2023-01-01T05:16:29.735Z,94620.00
2023-01-01T05:18:59.438Z,94634.00
2023-01-01T05:21:37.689Z,94628.00
2023-01-01T05:24:10.151Z,94629.00
2023-01-01T05:26:44.511Z,94631.00
2023-01-01T05:29:16.404Z,94630.00
2023-01-01T05:31:46.972Z,94630.00
2023-01-01T05:34:14.057Z,94633.00
2023-01-01T05:36:41.068Z,94632.00
2023-01-01T05:39:12.875Z,94630.00
2023-01-01T05:41:41.057Z,94631.00
2023-01-01T05:44:09.740Z,94637.00
2023-01-01T05:46:39.247Z,94638.00
2023-01-01T05:49:09.230Z,94639.00
2023-01-01T05:54:03.394Z,94635.00
2023-01-01T05:56:30.540Z,94644.00
2023-01-01T05:59:00.008Z,94642.00
2023-01-01T06:01:38.751Z,94637.00
2023-01-01T06:04:10.267Z,94634.00
2023-01-01T06:06:39.301Z,94641.00
2023-01-01T06:09:11.883Z,94661.00
2023-01-01T06:11:40.968Z,94659.00
2023-01-01T06:14:07.898Z,94658.00
2023-01-01T06:16:34.942Z,94660.00
2023-01-01T06:19:01.941Z,94657.00
2023-01-01T06:21:31.054Z,94652.00
2023-01-01T06:24:03.605Z,94653.00
2023-01-01T06:26:33.105Z,94663.00
2023-01-01T06:29:01.678Z,94643.00
2023-01-01T06:31:32.897Z,94652.00
2023-01-01T06:34:02.615Z,94668.00
2023-01-01T06:36:31.779Z,94664.00
2023-01-01T06:39:00.105Z,94666.00
2023-01-01T06:41:28.389Z,94672.00
2023-01-01T06:43:57.041Z,94676.00
2023-01-01T06:46:33.415Z,94676.00
2023-01-01T06:49:11.318Z,94682.00
2023-01-01T06:51:45.366Z,94674.00
2023-01-01T06:54:14.850Z,94678.00
2023-01-01T06:56:44.256Z,94680.00
2023-01-01T06:59:11.192Z,94680.00
2023-01-01T07:01:44.961Z,94685.00
2023-01-01T07:04:15.323Z,94680.00
2023-01-01T07:06:44.948Z,94689.00
2023-01-01T07:09:12.209Z,94693.00
2023-01-01T07:11:41.405Z,94689.00
2023-01-01T07:14:08.232Z,94689.00
2023-01-01T07:16:35.132Z,94690.00
2023-01-01T07:19:02.108Z,94694.00
2023-01-01T07:21:34.997Z,94696.00
2023-01-01T07:24:05.299Z,94694.00
2023-01-01T07:26:33.669Z,94697.00
2023-01-01T07:29:08.767Z,94702.00
2023-01-01T07:31:41.264Z,94699.00
2023-01-01T07:34:16.630Z,94697.00
2023-01-01T07:36:43.721Z,94699.00
2023-01-01T07:39:12.927Z,94693.00
2023-01-01T07:41:42.258Z,94709.00
2023-01-01T07:44:09.429Z,94708.00
2023-01-01T07:46:36.979Z,94700.00
2023-01-01T07:49:05.280Z,94700.00
2023-01-01T07:51:35.162Z,94710.00
2023-01-01T07:54:06.596Z,94703.00
2023-01-01T07:56:36.852Z,94689.00
2023-01-01T07:59:04.331Z,94694.00
2023-01-01T08:01:31.260Z,94712.00
2023-01-01T08:03:58.288Z,94697.00
2023-01-01T08:06:27.746Z,94699.00
2023-01-01T08:08:54.619Z,94711.00
2023-01-01T08:11:24.027Z,94715.00
2023-01-01T08:13:51.209Z,94705.00
2023-01-01T08:16:20.603Z,94718.00
2023-01-01T08:18:47.743Z,94721.00
2023-01-01T08:21:17.261Z,94722.00
2023-01-01T08:23:44.193Z,94717.00
2023-01-01T08:26:26.188Z,94728.00
2023-01-01T08:28:57.360Z,94720.00
2023-01-01T08:31:25.480Z,94716.00
2023-01-01T08:33:52.675Z,94717.00
2023-01-01T08:36:22.073Z,94712.00
2023-01-01T08:38:48.940Z,94707.00
2023-01-01T08:41:15.848Z,94722.00
2023-01-01T08:43:42.767Z,94713.00
2023-01-01T08:46:16.859Z,94717.00
2023-01-01T08:48:46.417Z,94731.00
2023-01-01T08:51:13.328Z,94733.00
2023-01-01T08:53:47.016Z,94727.00
2023-01-01T08:56:17.609Z,94730.00
2023-01-01T08:58:44.432Z,94724.00
2023-01-01T09:01:11.713Z,94724.00
2023-01-01T09:03:38.658Z,94722.00
2023-01-01T09:06:05.955Z,94721.00
2023-01-01T09:08:32.947Z,94727.00
2023-01-01T09:11:02.819Z,94729.00
2023-01-01T09:13:30.485Z,94735.00
2023-01-01T09:15:57.751Z,94735.00
2023-01-01T09:18:24.892Z,94740.00
2023-01-01T09:20:54.793Z,94744.00
2023-01-01T09:23:23.841Z,94749.00
2023-01-01T09:25:50.791Z,94747.00
2023-01-01T09:28:21.894Z,94740.00
2023-01-01T09:30:52.413Z,94747.00
2023-01-01T09:33:19.336Z,94756.00
2023-01-01T09:35:48.714Z,94747.00
2023-01-01T09:38:15.533Z,94754.00
2023-01-01T09:41:04.952Z,94760.00
2023-01-01T09:43:40.716Z,94753.00
2023-01-01T09:46:11.253Z,94754.00
2023-01-01T09:48:54.047Z,94743.00
2023-01-01T09:51:22.835Z,94744.00
2023-01-01T09:54:07.807Z,94740.00
2023-01-01T09:56:36.822Z,94738.00
2023-01-01T09:59:03.814Z,94734.00
2023-01-01T10:01:56.589Z,94729.00
2023-01-01T10:04:50.672Z,94744.00
2023-01-01T10:07:36.888Z,94728.00
2023-01-01T10:10:28.043Z,94730.00
2023-01-01T10:13:13.876Z,94730.00
2023-01-01T10:15:55.778Z,94722.00
2023-01-01T10:18:33.495Z,94717.00
2023-01-01T10:21:24.877Z,94715.00
2023-01-01T10:23:57.856Z,94706.00
2023-01-01T10:26:29.814Z,94708.00
2023-01-01T10:29:19.620Z,94701.00
2023-01-01T10:31:47.722Z,94692.00
2023-01-01T10:34:32.296Z,94696.00
2023-01-01T10:37:03.477Z,94700.00
2023-01-01T10:39:30.528Z,94702.00
2023-01-01T10:42:02.374Z,94695.00
2023-01-01T10:44:35.234Z,94695.00
2023-01-01T10:47:22.747Z,94693.00
2023-01-01T10:50:07.755Z,94701.00
2023-01-01T10:52:40.657Z,94699.00
2023-01-01T10:55:21.119Z,94692.00
2023-01-01T10:57:47.978Z,94698.00
2023-01-01T11:00:30.784Z,94681.00
2023-01-01T11:03:21.031Z,94693.00
2023-01-01T11:06:22.131Z,94684.00
2023-01-01T11:08:57.854Z,94685.00
2023-01-01T11:11:47.721Z,94678.00
2023-01-01T11:14:31.378Z,94670.00
2023-01-01T11:16:59.576Z,94666.00
2023-01-01T11:19:36.878Z,94665.00
2023-01-01T11:22:08.058Z,94660.00
2023-01-01T11:24:38.464Z,94651.00
2023-01-01T11:27:21.098Z,94653.00
2023-01-01T11:29:48.536Z,94644.00
2023-01-01T11:32:36.803Z,94651.00
2023-01-01T11:35:15.151Z,94653.00
2023-01-01T11:37:45.574Z,94647.00
2023-01-01T11:40:25.061Z,94646.00
2023-01-01T11:43:02.663Z,94649.00
2023-01-01T11:45:40.854Z,94641.00
2023-01-01T11:48:17.907Z,94643.00
2023-01-01T11:51:02.090Z,94639.00
2023-01-01T11:53:41.555Z,94634.00
2023-01-01T11:56:24.891Z,94625.00
2023-01-01T11:59:10.047Z,94619.00
2023-01-01T12:01:47.824Z,94617.00
2023-01-01T12:04:32.175Z,94626.00
2023-01-01T12:07:08.716Z,94621.00
2023-01-01T12:10:03.307Z,94615.00
2023-01-01T12:12:44.013Z,94611.00
2023-01-01T12:15:26.032Z,94614.00
2023-01-01T12:18:06.483Z,94606.00
2023-01-01T12:20:38.382Z,94608.00
2023-01-01T12:23:05.445Z,94602.00
2023-01-01T12:25:46.191Z,94599.00
2023-01-01T12:28:21.790Z,94597.00
2023-01-01T12:31:03.970Z,94594.00
2023-01-01T12:33:54.143Z,94585.00
2023-01-01T12:36:53.080Z,94581.00
2023-01-01T12:39:44.100Z,94574.00
2023-01-01T12:42:39.671Z,94561.00
2023-01-01T12:45:32.089Z,94563.00
2023-01-01T12:48:45.234Z,94563.00
2023-01-01T12:51:42.594Z,94566.00
2023-01-01T12:54:53.664Z,94571.00
2023-01-01T12:57:34.787Z,94565.00
2023-01-01T13:00:16.293Z,94571.00
2023-01-01T13:03:00.030Z,94559.00
2023-01-01T13:05:37.166Z,94558.00
2023-01-01T13:08:06.348Z,94553.00
2023-01-01T13:11:01.172Z,94558.00
2023-01-01T13:13:32.883Z,94553.00
2023-01-01T13:15:59.918Z,94550.00
2023-01-01T13:18:34.961Z,94549.00
2023-01-01T13:21:25.551Z,94544.00
2023-01-01T13:24:18.095Z,94541.00
2023-01-01T13:26:45.165Z,94545.00
2023-01-01T13:29:12.049Z,94549.00
2023-01-01T13:31:41.151Z,94551.00
2023-01-01T13:34:40.197Z,94553.00
2023-01-01T13:37:19.161Z,94547.00
2023-01-01T13:40:30.219Z,94541.00
2023-01-01T13:43:02.319Z,94539.00
2023-01-01T13:48:48.183Z,94522.00
2023-01-01T13:52:03.437Z,94516.00
2023-01-01T13:54:40.028Z,94509.00
2023-01-01T13:57:46.498Z,94516.00
2023-01-01T14:00:59.734Z,94524.00
2023-01-01T14:03:28.756Z,94517.00
2023-01-01T14:06:03.024Z,94514.00
2023-01-01T14:08:36.263Z,94524.00
2023-01-01T14:11:22.037Z,94538.00
2023-01-01T14:13:49.162Z,94524.00
2023-01-01T14:16:18.870Z,94528.00
2023-01-01T14:18:52.577Z,94521.00
2023-01-01T14:21:41.834Z,94520.00
2023-01-01T14:24:10.338Z,94527.00
2023-01-01T14:26:39.501Z,94532.00
2023-01-01T14:29:29.777Z,94534.00
2023-01-01T14:32:01.203Z,94543.00
2023-01-01T14:34:30.466Z,94535.00
2023-01-01T14:37:05.611Z,94541.00
2023-01-01T14:39:37.360Z,94546.00
2023-01-01T14:42:14.846Z,94537.00
2023-01-01T14:44:53.619Z,94543.00
2023-01-01T14:47:35.422Z,94541.00
2023-01-01T14:50:25.690Z,94548.00
2023-01-01T14:53:03.261Z,94547.00
2023-01-01T14:55:44.413Z,94545.00
2023-01-01T14:58:20.735Z,94546.00
2023-01-01T15:00:47.817Z,94552.00
2023-01-01T15:03:23.919Z,94548.00
2023-01-01T15:06:06.894Z,94558.00
2023-01-01T15:08:33.833Z,94560.00
2023-01-01T15:11:03.949Z,94552.00
2023-01-01T15:13:34.479Z,94558.00
2023-01-01T15:16:20.556Z,94558.00
2023-01-01T15:18:50.670Z,94569.00
2023-01-01T15:21:30.950Z,94560.00
2023-01-01T15:24:07.655Z,94561.00
2023-01-01T15:26:45.372Z,94563.00
2023-01-01T15:29:21.119Z,94561.00
2023-01-01T15:31:54.990Z,94562.00
2023-01-01T15:34:31.896Z,94562.00
2023-01-01T15:37:43.699Z,94566.00
2023-01-01T15:40:13.558Z,94553.00
2023-01-01T15:43:11.598Z,94564.00
2023-01-01T15:45:40.548Z,94563.00
2023-01-01T15:48:30.360Z,94560.00
2023-01-01T15:51:06.327Z,94563.00
2023-01-01T15:53:57.222Z,94559.00
2023-01-01T15:56:27.875Z,94560.00
2023-01-01T15:59:08.415Z,94555.00
2023-01-01T16:01:38.996Z,94551.00
2023-01-01T16:04:10.130Z,94547.00
2023-01-01T16:06:51.087Z,94558.00
2023-01-01T16:09:20.063Z,94568.00
2023-01-01T16:11:53.210Z,94560.00
2023-01-01T16:14:20.390Z,94560.00
2023-01-01T16:16:57.277Z,94560.00
2023-01-01T16:19:27.559Z,94560.00
2023-01-01T16:21:54.448Z,94566.00
2023-01-01T16:24:24.502Z,94564.00
2023-01-01T16:26:51.865Z,94564.00
2023-01-01T16:29:18.766Z,94580.00
2023-01-01T16:31:48.099Z,94562.00
2023-01-01T16:34:17.900Z,94568.00
2023-01-01T16:36:48.249Z,94563.00
2023-01-01T16:39:15.181Z,94570.00
2023-01-01T16:41:43.980Z,94554.00
2023-01-01T16:44:16.055Z,94555.00
2023-01-01T16:46:43.471Z,94555.00
2023-01-01T16:49:10.491Z,94548.00
2023-01-01T16:51:42.108Z,94547.00
2023-01-01T16:54:14.865Z,94546.00
2023-01-01T16:56:41.726Z,94552.00
2023-01-01T16:59:08.717Z,94540.00
2023-01-01T17:01:38.228Z,94540.00
2023-01-01T17:04:05.256Z,94540.00
2023-01-01T17:06:32.351Z,94538.00
2023-01-01T17:09:05.401Z,94540.00
2023-01-01T17:11:33.740Z,94531.00
2023-01-01T17:14:03.633Z,94544.00
2023-01-01T17:16:39.030Z,94537.00
2023-01-01T17:19:16.188Z,94538.00
2023-01-01T17:21:47.215Z,94549.00
2023-01-01T17:24:19.132Z,94529.00
2023-01-01T17:26:46.915Z,94538.00
2023-01-01T17:29:13.842Z,94539.00
2023-01-01T17:31:40.821Z,94540.00
2023-01-01T17:34:10.740Z,94536.00
2023-01-01T17:36:41.650Z,94533.00
2023-01-01T17:39:14.691Z,94549.00
2023-01-01T17:41:43.135Z,94540.00
2023-01-01T17:44:12.626Z,94550.00
2023-01-01T17:46:44.163Z,94549.00
2023-01-01T17:49:13.784Z,94540.00
2023-01-01T17:51:40.747Z,94535.00
2023-01-01T17:54:13.178Z,94544.00
2023-01-01T17:56:40.818Z,94535.00
2023-01-01T17:59:08.414Z,94541.00
2023-01-01T18:01:35.764Z,94551.00
2023-01-01T18:04:09.186Z,94541.00
2023-01-01T18:06:43.603Z,94548.00
2023-01-01T18:09:13.486Z,94547.00
2023-01-01T18:11:43.991Z,94548.00
2023-01-01T18:14:12.828Z,94551.00
2023-01-01T18:16:41.612Z,94553.00
2023-01-01T18:19:08.706Z,94546.00
2023-01-01T18:21:40.491Z,94546.00
2023-01-01T18:24:13.040Z,94537.00
2023-01-01T18:26:40.033Z,94546.00
2023-01-01T18:29:09.935Z,94551.00
2023-01-01T18:31:39.206Z,94553.00
2023-01-01T18:34:06.989Z,94547.00
2023-01-01T18:36:37.429Z,94548.00
2023-01-01T18:39:16.349Z,94548.00
2023-01-01T18:41:49.339Z,94551.00
2023-01-01T18:44:31.003Z,94550.00
2023-01-01T18:47:18.524Z,94552.00
2023-01-01T18:49:53.841Z,94558.00
2023-01-01T18:52:23.188Z,94549.00
2023-01-01T18:55:14.866Z,94551.00
2023-01-01T18:57:49.290Z,94551.00
2023-01-01T19:00:21.281Z,94557.00
2023-01-01T19:03:04.283Z,94553.00
2023-01-01T19:05:35.031Z,94554.00
2023-01-01T19:08:09.521Z,94547.00
2023-01-01T19:10:39.949Z,94559.00
2023-01-01T19:13:29.417Z,94555.00
2023-01-01T19:16:12.195Z,94549.00
2023-01-01T19:18:43.831Z,94550.00
2023-01-01T19:21:10.641Z,94557.00
2023-01-01T19:23:58.276Z,94547.00
2023-01-01T19:26:32.695Z,94540.00
2023-01-01T19:29:13.078Z,94546.00
2023-01-01T19:31:40.658Z,94550.00
2023-01-01T19:34:07.659Z,94543.00
2023-01-01T19:36:34.856Z,94552.00
2023-01-01T19:39:01.792Z,94552.00
2023-01-01T19:41:31.414Z,94539.00
2023-01-01T19:44:00.941Z,94552.00
2023-01-01T19:46:27.980Z,94550.00
2023-01-01T19:49:01.800Z,94554.00
2023-01-01T19:51:29.892Z,94553.00
2023-01-01T19:53:56.887Z,94545.00
2023-01-01T19:56:27.138Z,94545.00
2023-01-01T19:58:54.289Z,94540.00
2023-01-01T20:01:22.439Z,94536.00
2023-01-01T20:03:55.318Z,94544.00
2023-01-01T20:06:26.585Z,94539.00
2023-01-01T20:08:56.760Z,94543.00
2023-01-01T20:11:28.061Z,94522.00
2023-01-01T20:13:59.506Z,94531.00
2023-01-01T20:16:26.423Z,94517.00
2023-01-01T20:18:53.453Z,94529.00
2023-01-01T20:21:39.022Z,94518.00
2023-01-01T20:24:06.320Z,94533.00
2023-01-01T20:26:35.641Z,94512.00
2023-01-01T20:29:21.239Z,94531.00
2023-01-01T20:31:52.841Z,94530.00
2023-01-01T20:34:20.582Z,94532.00
2023-01-01T20:37:06.522Z,94529.00
2023-01-01T20:39:34.992Z,94528.00
2023-01-01T20:42:02.417Z,94539.00
2023-01-01T20:44:30.646Z,94532.00
2023-01-01T20:47:00.334Z,94529.00
2023-01-01T20:49:28.882Z,94524.00
2023-01-01T20:51:57.977Z,94531.00
2023-01-01T20:54:27.588Z,94529.00
2023-01-01T20:56:54.766Z,94522.00
2023-01-01T20:59:38.965Z,94524.00
2023-01-01T21:02:13.835Z,94533.00
2023-01-01T21:04:43.931Z,94510.00
2023-01-01T21:07:12.517Z,94520.00
2023-01-01T21:09:41.401Z,94520.00
2023-01-01T21:12:11.730Z,94516.00
2023-01-01T21:14:39.129Z,94523.00
2023-01-01T21:17:22.564Z,94516.00
2023-01-01T21:19:52.276Z,94511.00
2023-01-01T21:22:21.533Z,94520.00
2023-01-01T21:24:54.347Z,94511.00
2023-01-01T21:27:34.100Z,94518.00
2023-01-01T21:30:04.548Z,94521.00
2023-01-01T21:32:45.350Z,94516.00
2023-01-01T21:35:34.522Z,94523.00
2023-01-01T21:38:24.943Z,94518.00
2023-01-01T21:40:58.715Z,94522.00
2023-01-01T21:43:41.817Z,94533.00
2023-01-01T21:46:09.329Z,94534.00
2023-01-01T21:48:57.632Z,94526.00
2023-01-01T21:51:37.025Z,94526.00
2023-01-01T21:54:17.990Z,94525.00
2023-01-01T21:57:14.783Z,94523.00
2023-01-01T21:59:47.315Z,94518.00
2023-01-01T22:02:28.771Z,94524.00
2023-01-01T22:05:00.262Z,94519.00
2023-01-01T22:07:58.026Z,94516.00
2023-01-01T22:10:38.807Z,94517.00
2023-01-01T22:13:15.548Z,94520.00
2023-01-01T22:15:42.857Z,94501.00
2023-01-01T22:18:12.351Z,94521.00
2023-01-01T22:20:42.662Z,94501.00
2023-01-01T22:23:47.726Z,94514.00
2023-01-01T22:26:22.472Z,94514.00
2023-01-01T22:29:15.440Z,94503.00
2023-01-01T22:31:48.940Z,94505.00
2023-01-01T22:34:24.602Z,94505.00
2023-01-01T22:36:52.324Z,94511.00
2023-01-01T22:39:30.506Z,94513.00
2023-01-01T22:41:57.580Z,94512.00
2023-01-01T22:44:27.648Z,94503.00
2023-01-01T22:46:58.699Z,94510.00
2023-01-01T22:49:39.268Z,94518.00
2023-01-01T22:52:10.092Z,94505.00
2023-01-01T22:54:39.743Z,94507.00
2023-01-01T22:57:08.781Z,94513.00
2023-01-01T22:59:35.658Z,94506.00
2023-01-01T23:02:06.669Z,94512.00
2023-01-01T23:04:33.864Z,94515.00
2023-01-01T23:07:04.233Z,94514.00
2023-01-01T23:09:33.759Z,94517.00
2023-01-01T23:12:02.897Z,94511.00
2023-01-01T23:14:53.072Z,94512.00
2023-01-01T23:17:22.248Z,94511.00
2023-01-01T23:19:53.508Z,94502.00
2023-01-01T23:22:22.603Z,94501.00
2023-01-01T23:24:53.941Z,94503.00
2023-01-01T23:27:21.577Z,94489.00
2023-01-01T23:29:50.630Z,94497.00
2023-01-01T23:32:25.117Z,94493.00
2023-01-01T23:34:54.210Z,94493.00
2023-01-01T23:37:23.647Z,94499.00
2023-01-01T23:39:53.584Z,94494.00
2023-01-01T23:42:20.410Z,94490.00
2023-01-01T23:44:47.335Z,94499.00
2023-01-01T23:47:22.068Z,94479.00
2023-01-01T23:49:49.303Z,94486.00
2023-01-01T23:52:17.708Z,94479.00
2023-01-01T23:54:44.620Z,94473.00
2023-01-01T23:57:16.069Z,94476.00
2023-01-01T23:59:47.562Z,94472.00
